sensor_id;sensor_type;location;lat;lon;timestamp;P1;durP1;ratioP1;P2;durP2;ratioP2
57297;SDS011;43147;50.972;18.210;2022-09-21T00:03:43;9.80;;;8.20;;
57297;SDS011;43147;50.972;18.210;2022-09-21T00:06:11;10.10;;;8.50;;
57297;SDS011;43147;50.972;18.210;2022-09-21T00:08:38;13.00;;;8.60;;
57297;SDS011;43147;50.972;18.210;2022-09-21T00:11:06;14.90;;;9.20;;
57297;SDS011;43147;50.972;18.210;2022-09-21T00:13:33;13.20;;;10.10;;
57297;SDS011;43147;50.972;18.210;2022-09-21T00:16:03;20.70;;;11.70;;
57297;SDS011;43147;50.972;18.210;2022-09-21T00:18:30;15.40;;;11.40;;
57297;SDS011;43147;50.972;18.210;2022-09-21T00:20:55;16.80;;;13.70;;
57297;SDS011;43147;50.972;18.210;2022-09-21T00:23:21;19.90;;;15.20;;
57297;SDS011;43147;50.972;18.210;2022-09-21T00:25:47;19.60;;;14.90;;
57297;SDS011;43147;50.972;18.210;2022-09-21T00:28:13;22.80;;;18.10;;
57297;SDS011;43147;50.972;18.210;2022-09-21T00:30:38;21.00;;;17.30;;
57297;SDS011;43147;50.972;18.210;2022-09-21T00:33:06;26.00;;;19.50;;
57297;SDS011;43147;50.972;18.210;2022-09-21T00:35:32;26.40;;;19.60;;
57297;SDS011;43147;50.972;18.210;2022-09-21T00:38:01;25.90;;;19.00;;
57297;SDS011;43147;50.972;18.210;2022-09-21T00:40:27;24.10;;;19.40;;
57297;SDS011;43147;50.972;18.210;2022-09-21T00:43:08;25.40;;;20.40;;
57297;SDS011;43147;50.972;18.210;2022-09-21T00:45:41;32.30;;;22.00;;
57297;SDS011;43147;50.972;18.210;2022-09-21T00:48:07;28.00;;;19.60;;
57297;SDS011;43147;50.972;18.210;2022-09-21T00:50:33;23.10;;;17.20;;
57297;SDS011;43147;50.972;18.210;2022-09-21T00:52:59;26.60;;;16.00;;
57297;SDS011;43147;50.972;18.210;2022-09-21T00:55:26;15.90;;;13.10;;
57297;SDS011;43147;50.972;18.210;2022-09-21T00:58:29;18.20;;;13.30;;
57297;SDS011;43147;50.972;18.210;2022-09-21T01:00:52;19.40;;;12.30;;
57297;SDS011;43147;50.972;18.210;2022-09-21T01:03:18;17.70;;;12.20;;
57297;SDS011;43147;50.972;18.210;2022-09-21T01:05:43;14.80;;;11.70;;
57297;SDS011;43147;50.972;18.210;2022-09-21T01:08:09;15.30;;;13.00;;
57297;SDS011;43147;50.972;18.210;2022-09-21T01:16:48;22.30;;;15.00;;
57297;SDS011;43147;50.972;18.210;2022-09-21T01:19:35;19.70;;;14.90;;
57297;SDS011;43147;50.972;18.210;2022-09-21T01:25:17;26.50;;;17.50;;
57297;SDS011;43147;50.972;18.210;2022-09-21T01:28:05;29.60;;;18.50;;
57297;SDS011;43147;50.972;18.210;2022-09-21T01:30:35;32.90;;;19.60;;
57297;SDS011;43147;50.972;18.210;2022-09-21T01:33:04;27.50;;;17.90;;
57297;SDS011;43147;50.972;18.210;2022-09-21T01:35:42;27.10;;;16.90;;
57297;SDS011;43147;50.972;18.210;2022-09-21T01:38:13;31.30;;;17.80;;
57297;SDS011;43147;50.972;18.210;2022-09-21T01:40:42;23.50;;;15.10;;
57297;SDS011;43147;50.972;18.210;2022-09-21T01:43:13;21.50;;;14.50;;
57297;SDS011;43147;50.972;18.210;2022-09-21T01:45:50;21.30;;;14.10;;
57297;SDS011;43147;50.972;18.210;2022-09-21T01:48:18;18.00;;;13.40;;
57297;SDS011;43147;50.972;18.210;2022-09-21T01:50:47;17.70;;;13.50;;
57297;SDS011;43147;50.972;18.210;2022-09-21T01:53:20;21.00;;;13.10;;
57297;SDS011;43147;50.972;18.210;2022-09-21T01:58:35;17.40;;;12.50;;
57297;SDS011;43147;50.972;18.210;2022-09-21T02:01:06;15.90;;;10.90;;
57297;SDS011;43147;50.972;18.210;2022-09-21T02:03:36;15.10;;;9.30;;
57297;SDS011;43147;50.972;18.210;2022-09-21T02:06:05;12.70;;;9.00;;
57297;SDS011;43147;50.972;18.210;2022-09-21T02:08:33;13.60;;;9.50;;
57297;SDS011;43147;50.972;18.210;2022-09-21T02:11:00;12.90;;;10.00;;
57297;SDS011;43147;50.972;18.210;2022-09-21T02:13:28;16.90;;;12.00;;
57297;SDS011;43147;50.972;18.210;2022-09-21T02:16:02;16.80;;;10.60;;
57297;SDS011;43147;50.972;18.210;2022-09-21T02:21:30;12.50;;;10.40;;
57297;SDS011;43147;50.972;18.210;2022-09-21T02:24:20;19.20;;;12.70;;
57297;SDS011;43147;50.972;18.210;2022-09-21T02:32:31;24.00;;;15.40;;
57297;SDS011;43147;50.972;18.210;2022-09-21T02:37:51;29.90;;;18.70;;
57297;SDS011;43147;50.972;18.210;2022-09-21T02:40:40;32.60;;;20.20;;
57297;SDS011;43147;50.972;18.210;2022-09-21T02:43:20;28.80;;;18.40;;
57297;SDS011;43147;50.972;18.210;2022-09-21T02:45:51;32.50;;;20.20;;
57297;SDS011;43147;50.972;18.210;2022-09-21T02:48:42;33.80;;;23.70;;
57297;SDS011;43147;50.972;18.210;2022-09-21T02:51:13;38.00;;;25.40;;
57297;SDS011;43147;50.972;18.210;2022-09-21T02:53:50;32.10;;;19.90;;
57297;SDS011;43147;50.972;18.210;2022-09-21T02:56:17;29.80;;;21.10;;
57297;SDS011;43147;50.972;18.210;2022-09-21T03:01:19;26.30;;;17.60;;
57297;SDS011;43147;50.972;18.210;2022-09-21T03:03:45;27.00;;;16.90;;
57297;SDS011;43147;50.972;18.210;2022-09-21T03:06:10;21.90;;;14.70;;
57297;SDS011;43147;50.972;18.210;2022-09-21T03:08:36;28.10;;;16.50;;
57297;SDS011;43147;50.972;18.210;2022-09-21T03:11:01;21.80;;;15.80;;
57297;SDS011;43147;50.972;18.210;2022-09-21T03:13:27;20.70;;;15.60;;
57297;SDS011;43147;50.972;18.210;2022-09-21T03:16:03;22.30;;;15.70;;
57297;SDS011;43147;50.972;18.210;2022-09-21T03:18:30;28.50;;;16.00;;
57297;SDS011;43147;50.972;18.210;2022-09-21T03:20:56;21.30;;;15.60;;
57297;SDS011;43147;50.972;18.210;2022-09-21T03:23:22;20.90;;;15.10;;
57297;SDS011;43147;50.972;18.210;2022-09-21T03:25:48;21.80;;;15.40;;
57297;SDS011;43147;50.972;18.210;2022-09-21T03:28:14;19.90;;;14.50;;
57297;SDS011;43147;50.972;18.210;2022-09-21T03:30:42;22.20;;;14.70;;
57297;SDS011;43147;50.972;18.210;2022-09-21T03:33:07;27.90;;;16.10;;
57297;SDS011;43147;50.972;18.210;2022-09-21T03:35:33;21.80;;;15.40;;
57297;SDS011;43147;50.972;18.210;2022-09-21T03:37:59;20.80;;;15.60;;
57297;SDS011;43147;50.972;18.210;2022-09-21T03:40:26;22.10;;;15.60;;
57297;SDS011;43147;50.972;18.210;2022-09-21T03:42:52;22.60;;;17.10;;
57297;SDS011;43147;50.972;18.210;2022-09-21T03:45:18;30.50;;;19.80;;
57297;SDS011;43147;50.972;18.210;2022-09-21T03:47:46;37.10;;;22.40;;
57297;SDS011;43147;50.972;18.210;2022-09-21T03:50:12;32.30;;;20.80;;
57297;SDS011;43147;50.972;18.210;2022-09-21T03:52:37;35.90;;;18.90;;
57297;SDS011;43147;50.972;18.210;2022-09-21T03:55:04;31.80;;;19.50;;
57297;SDS011;43147;50.972;18.210;2022-09-21T03:57:31;28.10;;;18.80;;
57297;SDS011;43147;50.972;18.210;2022-09-21T03:59:58;28.00;;;17.90;;
57297;SDS011;43147;50.972;18.210;2022-09-21T04:02:24;27.00;;;17.40;;
57297;SDS011;43147;50.972;18.210;2022-09-21T04:04:50;26.50;;;17.30;;
57297;SDS011;43147;50.972;18.210;2022-09-21T04:07:15;35.80;;;18.90;;
57297;SDS011;43147;50.972;18.210;2022-09-21T04:09:41;47.00;;;16.90;;
57297;SDS011;43147;50.972;18.210;2022-09-21T04:12:06;28.50;;;13.60;;
57297;SDS011;43147;50.972;18.210;2022-09-21T04:14:32;26.60;;;14.10;;
57297;SDS011;43147;50.972;18.210;2022-09-21T04:16:59;24.70;;;14.80;;
57297;SDS011;43147;50.972;18.210;2022-09-21T04:19:24;31.90;;;16.10;;
57297;SDS011;43147;50.972;18.210;2022-09-21T04:21:50;29.10;;;16.30;;
57297;SDS011;43147;50.972;18.210;2022-09-21T04:24:16;43.60;;;18.60;;
57297;SDS011;43147;50.972;18.210;2022-09-21T04:26:43;34.80;;;18.30;;
57297;SDS011;43147;50.972;18.210;2022-09-21T04:29:13;50.40;;;22.30;;
57297;SDS011;43147;50.972;18.210;2022-09-21T04:31:39;71.70;;;28.40;;
57297;SDS011;43147;50.972;18.210;2022-09-21T04:34:05;73.40;;;30.90;;
57297;SDS011;43147;50.972;18.210;2022-09-21T04:36:31;89.40;;;31.20;;
57297;SDS011;43147;50.972;18.210;2022-09-21T04:38:57;72.30;;;31.90;;
57297;SDS011;43147;50.972;18.210;2022-09-21T04:41:24;63.40;;;31.80;;
57297;SDS011;43147;50.972;18.210;2022-09-21T04:43:50;64.30;;;30.20;;
57297;SDS011;43147;50.972;18.210;2022-09-21T04:46:16;61.50;;;29.50;;
57297;SDS011;43147;50.972;18.210;2022-09-21T04:48:43;73.90;;;33.30;;
57297;SDS011;43147;50.972;18.210;2022-09-21T04:51:11;54.20;;;28.00;;
57297;SDS011;43147;50.972;18.210;2022-09-21T04:53:38;61.20;;;28.90;;
57297;SDS011;43147;50.972;18.210;2022-09-21T04:56:05;54.30;;;26.50;;
57297;SDS011;43147;50.972;18.210;2022-09-21T04:58:31;45.70;;;25.80;;
57297;SDS011;43147;50.972;18.210;2022-09-21T05:00:57;53.80;;;27.90;;
57297;SDS011;43147;50.972;18.210;2022-09-21T05:03:23;56.70;;;30.00;;
57297;SDS011;43147;50.972;18.210;2022-09-21T05:05:50;54.00;;;30.00;;
57297;SDS011;43147;50.972;18.210;2022-09-21T05:08:16;55.70;;;29.40;;
57297;SDS011;43147;50.972;18.210;2022-09-21T05:11:02;52.20;;;28.10;;
57297;SDS011;43147;50.972;18.210;2022-09-21T05:13:31;47.20;;;26.60;;
57297;SDS011;43147;50.972;18.210;2022-09-21T05:15:57;44.60;;;26.00;;
57297;SDS011;43147;50.972;18.210;2022-09-21T05:18:22;42.00;;;25.10;;
57297;SDS011;43147;50.972;18.210;2022-09-21T05:20:56;41.10;;;25.30;;
57297;SDS011;43147;50.972;18.210;2022-09-21T05:23:22;47.40;;;27.80;;
57297;SDS011;43147;50.972;18.210;2022-09-21T05:25:48;40.20;;;27.10;;
57297;SDS011;43147;50.972;18.210;2022-09-21T05:28:14;42.20;;;25.30;;
57297;SDS011;43147;50.972;18.210;2022-09-21T05:30:44;37.80;;;24.10;;
57297;SDS011;43147;50.972;18.210;2022-09-21T05:33:14;29.30;;;19.60;;
57297;SDS011;43147;50.972;18.210;2022-09-21T05:38:30;29.00;;;17.30;;
57297;SDS011;43147;50.972;18.210;2022-09-21T05:40:56;23.60;;;16.30;;
57297;SDS011;43147;50.972;18.210;2022-09-21T05:43:22;26.20;;;15.60;;
57297;SDS011;43147;50.972;18.210;2022-09-21T05:45:53;20.30;;;14.30;;
57297;SDS011;43147;50.972;18.210;2022-09-21T05:48:26;25.90;;;16.90;;
57297;SDS011;43147;50.972;18.210;2022-09-21T06:04:37;22.00;;;17.80;;
57297;SDS011;43147;50.972;18.210;2022-09-21T06:07:03;20.50;;;14.10;;
57297;SDS011;43147;50.972;18.210;2022-09-21T06:09:28;18.50;;;12.10;;
57297;SDS011;43147;50.972;18.210;2022-09-21T06:11:54;17.60;;;11.80;;
57297;SDS011;43147;50.972;18.210;2022-09-21T06:14:20;17.20;;;10.60;;
57297;SDS011;43147;50.972;18.210;2022-09-21T06:16:49;14.90;;;11.60;;
57297;SDS011;43147;50.972;18.210;2022-09-21T06:19:15;14.30;;;12.40;;
57297;SDS011;43147;50.972;18.210;2022-09-21T06:21:41;15.40;;;12.50;;
57297;SDS011;43147;50.972;18.210;2022-09-21T06:24:07;20.00;;;11.90;;
57297;SDS011;43147;50.972;18.210;2022-09-21T06:26:33;17.40;;;12.70;;
57297;SDS011;43147;50.972;18.210;2022-09-21T06:28:59;16.40;;;12.50;;
57297;SDS011;43147;50.972;18.210;2022-09-21T06:31:27;17.00;;;14.30;;
57297;SDS011;43147;50.972;18.210;2022-09-21T06:33:53;16.50;;;12.40;;
57297;SDS011;43147;50.972;18.210;2022-09-21T06:36:19;17.70;;;12.00;;
57297;SDS011;43147;50.972;18.210;2022-09-21T06:38:45;18.00;;;12.20;;
57297;SDS011;43147;50.972;18.210;2022-09-21T06:41:10;19.30;;;13.90;;
57297;SDS011;43147;50.972;18.210;2022-09-21T06:43:37;17.80;;;13.50;;
57297;SDS011;43147;50.972;18.210;2022-09-21T06:46:02;19.00;;;14.50;;
57297;SDS011;43147;50.972;18.210;2022-09-21T06:48:28;18.00;;;14.20;;
57297;SDS011;43147;50.972;18.210;2022-09-21T06:50:56;18.60;;;15.60;;
57297;SDS011;43147;50.972;18.210;2022-09-21T06:53:23;13.40;;;12.00;;
57297;SDS011;43147;50.972;18.210;2022-09-21T06:55:49;15.40;;;12.60;;
57297;SDS011;43147;50.972;18.210;2022-09-21T06:58:14;14.30;;;10.50;;
57297;SDS011;43147;50.972;18.210;2022-09-21T07:00:40;14.90;;;13.40;;
57297;SDS011;43147;50.972;18.210;2022-09-21T07:03:05;12.50;;;11.30;;
57297;SDS011;43147;50.972;18.210;2022-09-21T07:05:35;12.40;;;10.60;;
57297;SDS011;43147;50.972;18.210;2022-09-21T07:08:00;18.00;;;11.90;;
57297;SDS011;43147;50.972;18.210;2022-09-21T07:10:26;15.90;;;12.20;;
57297;SDS011;43147;50.972;18.210;2022-09-21T07:12:52;14.60;;;12.60;;
57297;SDS011;43147;50.972;18.210;2022-09-21T07:15:18;19.20;;;12.70;;
57297;SDS011;43147;50.972;18.210;2022-09-21T07:17:43;18.30;;;14.40;;
57297;SDS011;43147;50.972;18.210;2022-09-21T07:20:09;15.90;;;14.10;;
57297;SDS011;43147;50.972;18.210;2022-09-21T07:22:35;17.70;;;14.90;;
57297;SDS011;43147;50.972;18.210;2022-09-21T07:25:00;15.80;;;14.30;;
57297;SDS011;43147;50.972;18.210;2022-09-21T07:27:27;15.30;;;12.40;;
57297;SDS011;43147;50.972;18.210;2022-09-21T07:29:54;15.60;;;12.80;;
57297;SDS011;43147;50.972;18.210;2022-09-21T07:32:19;15.50;;;13.60;;
57297;SDS011;43147;50.972;18.210;2022-09-21T07:34:45;18.20;;;13.90;;
57297;SDS011;43147;50.972;18.210;2022-09-21T07:37:13;15.50;;;13.80;;
57297;SDS011;43147;50.972;18.210;2022-09-21T07:39:39;23.40;;;14.00;;
57297;SDS011;43147;50.972;18.210;2022-09-21T07:42:05;24.20;;;13.50;;
57297;SDS011;43147;50.972;18.210;2022-09-21T07:44:30;16.60;;;13.60;;
57297;SDS011;43147;50.972;18.210;2022-09-21T07:46:56;13.90;;;12.50;;
57297;SDS011;43147;50.972;18.210;2022-09-21T07:49:22;17.20;;;12.70;;
57297;SDS011;43147;50.972;18.210;2022-09-21T07:51:47;19.80;;;13.00;;
57297;SDS011;43147;50.972;18.210;2022-09-21T07:54:13;13.30;;;12.10;;
57297;SDS011;43147;50.972;18.210;2022-09-21T07:56:42;13.10;;;11.40;;
57297;SDS011;43147;50.972;18.210;2022-09-21T07:59:27;13.90;;;11.80;;
57297;SDS011;43147;50.972;18.210;2022-09-21T08:01:57;12.30;;;10.80;;
57297;SDS011;43147;50.972;18.210;2022-09-21T08:04:24;12.20;;;10.90;;
57297;SDS011;43147;50.972;18.210;2022-09-21T08:06:50;12.10;;;10.90;;
57297;SDS011;43147;50.972;18.210;2022-09-21T08:09:16;13.10;;;11.90;;
57297;SDS011;43147;50.972;18.210;2022-09-21T08:11:42;12.70;;;11.40;;
57297;SDS011;43147;50.972;18.210;2022-09-21T08:14:09;12.70;;;11.40;;
57297;SDS011;43147;50.972;18.210;2022-09-21T08:16:36;17.70;;;14.70;;
57297;SDS011;43147;50.972;18.210;2022-09-21T08:19:03;13.10;;;11.90;;
57297;SDS011;43147;50.972;18.210;2022-09-21T08:21:29;14.00;;;12.70;;
57297;SDS011;43147;50.972;18.210;2022-09-21T08:23:55;12.90;;;11.60;;
57297;SDS011;43147;50.972;18.210;2022-09-21T08:26:21;14.90;;;12.30;;
57297;SDS011;43147;50.972;18.210;2022-09-21T08:28:49;14.20;;;12.10;;
57297;SDS011;43147;50.972;18.210;2022-09-21T08:31:17;12.60;;;10.80;;
57297;SDS011;43147;50.972;18.210;2022-09-21T08:33:45;12.30;;;11.20;;
57297;SDS011;43147;50.972;18.210;2022-09-21T08:36:13;17.20;;;11.40;;
57297;SDS011;43147;50.972;18.210;2022-09-21T08:38:39;20.90;;;11.60;;
57297;SDS011;43147;50.972;18.210;2022-09-21T08:41:24;14.40;;;10.40;;
57297;SDS011;43147;50.972;18.210;2022-09-21T08:44:06;12.30;;;11.10;;
57297;SDS011;43147;50.972;18.210;2022-09-21T08:46:38;14.20;;;11.00;;
57297;SDS011;43147;50.972;18.210;2022-09-21T08:49:07;10.20;;;9.30;;
57297;SDS011;43147;50.972;18.210;2022-09-21T08:51:42;11.00;;;9.90;;
57297;SDS011;43147;50.972;18.210;2022-09-21T08:54:14;11.60;;;9.20;;
57297;SDS011;43147;50.972;18.210;2022-09-21T08:56:45;9.30;;;8.50;;
57297;SDS011;43147;50.972;18.210;2022-09-21T08:59:11;9.20;;;8.40;;
57297;SDS011;43147;50.972;18.210;2022-09-21T09:01:49;9.60;;;8.60;;
57297;SDS011;43147;50.972;18.210;2022-09-21T09:04:25;8.10;;;7.30;;
57297;SDS011;43147;50.972;18.210;2022-09-21T09:07:00;10.40;;;7.30;;
57297;SDS011;43147;50.972;18.210;2022-09-21T09:09:32;10.30;;;8.30;;
57297;SDS011;43147;50.972;18.210;2022-09-21T09:15:03;6.90;;;6.10;;
57297;SDS011;43147;50.972;18.210;2022-09-21T09:17:49;8.40;;;6.10;;
57297;SDS011;43147;50.972;18.210;2022-09-21T09:20:42;6.70;;;6.10;;
57297;SDS011;43147;50.972;18.210;2022-09-21T09:23:27;9.90;;;6.60;;
57297;SDS011;43147;50.972;18.210;2022-09-21T09:26:04;8.10;;;6.60;;
57297;SDS011;43147;50.972;18.210;2022-09-21T09:31:04;7.20;;;6.60;;
57297;SDS011;43147;50.972;18.210;2022-09-21T09:33:45;8.50;;;6.70;;
57297;SDS011;43147;50.972;18.210;2022-09-21T09:36:17;10.70;;;6.60;;
57297;SDS011;43147;50.972;18.210;2022-09-21T09:38:54;7.70;;;6.90;;
57297;SDS011;43147;50.972;18.210;2022-09-21T09:49:52;6.80;;;5.40;;
57297;SDS011;43147;50.972;18.210;2022-09-21T09:52:39;6.40;;;5.70;;
57297;SDS011;43147;50.972;18.210;2022-09-21T09:55:15;6.30;;;5.70;;
57297;SDS011;43147;50.972;18.210;2022-09-21T09:57:46;6.00;;;5.50;;
57297;SDS011;43147;50.972;18.210;2022-09-21T10:00:14;6.80;;;5.50;;
57297;SDS011;43147;50.972;18.210;2022-09-21T10:02:49;10.00;;;6.80;;
57297;SDS011;43147;50.972;18.210;2022-09-21T10:05:22;16.40;;;7.00;;
57297;SDS011;43147;50.972;18.210;2022-09-21T10:07:50;12.10;;;6.50;;
57297;SDS011;43147;50.972;18.210;2022-09-21T10:12:56;5.60;;;3.60;;
57297;SDS011;43147;50.972;18.210;2022-09-21T10:15:53;7.40;;;4.50;;
57297;SDS011;43147;50.972;18.210;2022-09-21T10:18:21;6.80;;;3.90;;
57297;SDS011;43147;50.972;18.210;2022-09-21T10:23:22;6.90;;;4.10;;
57297;SDS011;43147;50.972;18.210;2022-09-21T10:26:21;7.00;;;3.30;;
57297;SDS011;43147;50.972;18.210;2022-09-21T10:28:59;6.20;;;2.30;;
57297;SDS011;43147;50.972;18.210;2022-09-21T10:31:27;5.80;;;2.90;;
57297;SDS011;43147;50.972;18.210;2022-09-21T10:34:14;4.50;;;2.70;;
57297;SDS011;43147;50.972;18.210;2022-09-21T10:36:40;6.40;;;2.80;;
57297;SDS011;43147;50.972;18.210;2022-09-21T10:39:27;4.60;;;3.10;;
57297;SDS011;43147;50.972;18.210;2022-09-21T10:44:37;4.00;;;2.10;;
57297;SDS011;43147;50.972;18.210;2022-09-21T10:52:32;3.40;;;2.40;;
57297;SDS011;43147;50.972;18.210;2022-09-21T10:54:59;6.60;;;1.70;;
57297;SDS011;43147;50.972;18.210;2022-09-21T10:57:26;7.50;;;2.70;;
57297;SDS011;43147;50.972;18.210;2022-09-21T10:59:52;3.50;;;1.80;;
57297;SDS011;43147;50.972;18.210;2022-09-21T11:05:04;2.90;;;2.20;;
57297;SDS011;43147;50.972;18.210;2022-09-21T11:07:36;6.70;;;2.60;;
57297;SDS011;43147;50.972;18.210;2022-09-21T11:10:09;2.60;;;1.80;;
57297;SDS011;43147;50.972;18.210;2022-09-21T11:12:42;5.20;;;2.70;;
57297;SDS011;43147;50.972;18.210;2022-09-21T11:15:45;5.10;;;2.00;;
57297;SDS011;43147;50.972;18.210;2022-09-21T11:20:58;4.40;;;1.50;;
57297;SDS011;43147;50.972;18.210;2022-09-21T11:26:28;5.20;;;1.90;;
57297;SDS011;43147;50.972;18.210;2022-09-21T11:29:01;4.30;;;1.60;;
57297;SDS011;43147;50.972;18.210;2022-09-21T11:31:59;6.60;;;2.10;;
57297;SDS011;43147;50.972;18.210;2022-09-21T11:34:45;5.30;;;2.00;;
57297;SDS011;43147;50.972;18.210;2022-09-21T11:43:25;14.00;;;7.80;;
57297;SDS011;43147;50.972;18.210;2022-09-21T11:46:33;10.10;;;6.00;;
57297;SDS011;43147;50.972;18.210;2022-09-21T11:59:54;2.40;;;1.60;;
57297;SDS011;43147;50.972;18.210;2022-09-21T12:05:31;5.10;;;2.80;;
57297;SDS011;43147;50.972;18.210;2022-09-21T12:23:53;5.40;;;3.60;;
57297;SDS011;43147;50.972;18.210;2022-09-21T12:26:28;5.70;;;3.50;;
57297;SDS011;43147;50.972;18.210;2022-09-21T12:31:46;7.40;;;3.50;;
57297;SDS011;43147;50.972;18.210;2022-09-21T12:34:26;5.50;;;4.30;;
57297;SDS011;43147;50.972;18.210;2022-09-21T12:39:37;5.60;;;5.00;;
57297;SDS011;43147;50.972;18.210;2022-09-21T12:42:16;9.70;;;5.70;;
57297;SDS011;43147;50.972;18.210;2022-09-21T12:44:50;4.60;;;4.10;;
57297;SDS011;43147;50.972;18.210;2022-09-21T12:50:18;4.00;;;3.40;;
57297;SDS011;43147;50.972;18.210;2022-09-21T12:52:47;8.60;;;4.20;;
57297;SDS011;43147;50.972;18.210;2022-09-21T13:00:40;10.50;;;3.20;;
57297;SDS011;43147;50.972;18.210;2022-09-21T13:03:15;3.30;;;3.00;;
57297;SDS011;43147;50.972;18.210;2022-09-21T13:08:34;4.10;;;2.90;;
57297;SDS011;43147;50.972;18.210;2022-09-21T13:11:03;2.60;;;2.10;;
57297;SDS011;43147;50.972;18.210;2022-09-21T13:16:02;7.10;;;1.90;;
57297;SDS011;43147;50.972;18.210;2022-09-21T13:21:16;3.70;;;2.00;;
57297;SDS011;43147;50.972;18.210;2022-09-21T13:23:50;2.30;;;1.50;;
57297;SDS011;43147;50.972;18.210;2022-09-21T13:26:42;3.60;;;1.80;;
57297;SDS011;43147;50.972;18.210;2022-09-21T13:34:39;3.40;;;2.30;;
57297;SDS011;43147;50.972;18.210;2022-09-21T13:39:44;9.00;;;2.90;;
57297;SDS011;43147;50.972;18.210;2022-09-21T13:44:58;5.30;;;1.40;;
57297;SDS011;43147;50.972;18.210;2022-09-21T13:47:43;2.90;;;1.20;;
57297;SDS011;43147;50.972;18.210;2022-09-21T13:50:20;1.90;;;1.10;;
57297;SDS011;43147;50.972;18.210;2022-09-21T13:53:16;1.60;;;1.10;;
57297;SDS011;43147;50.972;18.210;2022-09-21T13:55:51;5.00;;;1.40;;
57297;SDS011;43147;50.972;18.210;2022-09-21T13:58:25;3.70;;;1.60;;
57297;SDS011;43147;50.972;18.210;2022-09-21T14:00:55;4.70;;;3.30;;
57297;SDS011;43147;50.972;18.210;2022-09-21T14:06:28;2.10;;;1.50;;
57297;SDS011;43147;50.972;18.210;2022-09-21T14:09:00;2.20;;;1.50;;
57297;SDS011;43147;50.972;18.210;2022-09-21T14:18:53;1.20;;;0.90;;
57297;SDS011;43147;50.972;18.210;2022-09-21T14:21:19;0.90;;;0.60;;
57297;SDS011;43147;50.972;18.210;2022-09-21T14:31:32;1.00;;;0.50;;
57297;SDS011;43147;50.972;18.210;2022-09-21T14:33:59;3.70;;;1.00;;
57297;SDS011;43147;50.972;18.210;2022-09-21T14:36:31;2.70;;;0.70;;
57297;SDS011;43147;50.972;18.210;2022-09-21T14:39:03;1.30;;;0.80;;
57297;SDS011;43147;50.972;18.210;2022-09-21T14:41:40;1.30;;;0.80;;
57297;SDS011;43147;50.972;18.210;2022-09-21T14:44:11;1.40;;;0.80;;
57297;SDS011;43147;50.972;18.210;2022-09-21T15:00:55;1.60;;;1.30;;
57297;SDS011;43147;50.972;18.210;2022-09-21T15:18:13;1.80;;;1.60;;
57297;SDS011;43147;50.972;18.210;2022-09-21T15:20:44;1.90;;;1.50;;
57297;SDS011;43147;50.972;18.210;2022-09-21T15:23:19;2.70;;;1.60;;
57297;SDS011;43147;50.972;18.210;2022-09-21T15:25:52;2.50;;;1.80;;
57297;SDS011;43147;50.972;18.210;2022-09-21T15:28:42;5.50;;;1.90;;
57297;SDS011;43147;50.972;18.210;2022-09-21T15:31:14;1.80;;;1.70;;
57297;SDS011;43147;50.972;18.210;2022-09-21T15:33:41;2.00;;;1.70;;
57297;SDS011;43147;50.972;18.210;2022-09-21T15:36:11;2.20;;;1.60;;
57297;SDS011;43147;50.972;18.210;2022-09-21T15:38:38;2.70;;;1.30;;
57297;SDS011;43147;50.972;18.210;2022-09-21T15:41:04;1.70;;;1.40;;
57297;SDS011;43147;50.972;18.210;2022-09-21T15:43:31;3.90;;;1.60;;
57297;SDS011;43147;50.972;18.210;2022-09-21T15:46:05;1.70;;;1.50;;
57297;SDS011;43147;50.972;18.210;2022-09-21T15:48:35;2.40;;;1.90;;
57297;SDS011;43147;50.972;18.210;2022-09-21T15:57:05;2.70;;;2.20;;
57297;SDS011;43147;50.972;18.210;2022-09-21T15:59:49;3.50;;;2.70;;
57297;SDS011;43147;50.972;18.210;2022-09-21T16:02:20;2.40;;;2.00;;
57297;SDS011;43147;50.972;18.210;2022-09-21T16:04:48;3.20;;;2.50;;
57297;SDS011;43147;50.972;18.210;2022-09-21T16:07:28;3.60;;;2.30;;
57297;SDS011;43147;50.972;18.210;2022-09-21T16:09:54;5.30;;;2.50;;
57297;SDS011;43147;50.972;18.210;2022-09-21T16:12:27;4.90;;;2.90;;
57297;SDS011;43147;50.972;18.210;2022-09-21T16:15:16;3.40;;;2.70;;
57297;SDS011;43147;50.972;18.210;2022-09-21T16:18:00;6.20;;;2.80;;
57297;SDS011;43147;50.972;18.210;2022-09-21T16:20:42;5.10;;;2.20;;
57297;SDS011;43147;50.972;18.210;2022-09-21T16:23:13;3.10;;;2.20;;
57297;SDS011;43147;50.972;18.210;2022-09-21T16:25:43;3.00;;;2.10;;
57297;SDS011;43147;50.972;18.210;2022-09-21T16:30:48;5.00;;;2.30;;
57297;SDS011;43147;50.972;18.210;2022-09-21T16:38:58;2.90;;;1.50;;
57297;SDS011;43147;50.972;18.210;2022-09-21T16:44:34;2.80;;;1.20;;
57297;SDS011;43147;50.972;18.210;2022-09-21T16:47:15;2.60;;;1.70;;
57297;SDS011;43147;50.972;18.210;2022-09-21T16:49:51;1.90;;;1.60;;
57297;SDS011;43147;50.972;18.210;2022-09-21T16:52:22;4.70;;;1.50;;
57297;SDS011;43147;50.972;18.210;2022-09-21T16:54:48;2.00;;;1.60;;
57297;SDS011;43147;50.972;18.210;2022-09-21T16:57:15;2.60;;;1.40;;
57297;SDS011;43147;50.972;18.210;2022-09-21T16:59:41;2.70;;;2.40;;
57297;SDS011;43147;50.972;18.210;2022-09-21T17:02:08;2.60;;;2.00;;
57297;SDS011;43147;50.972;18.210;2022-09-21T17:04:34;3.70;;;1.90;;
57297;SDS011;43147;50.972;18.210;2022-09-21T17:07:00;3.60;;;1.70;;
57297;SDS011;43147;50.972;18.210;2022-09-21T17:09:33;2.90;;;1.90;;
57297;SDS011;43147;50.972;18.210;2022-09-21T17:12:00;3.20;;;1.50;;
57297;SDS011;43147;50.972;18.210;2022-09-21T17:14:28;4.70;;;1.80;;
57297;SDS011;43147;50.972;18.210;2022-09-21T17:16:59;5.00;;;2.60;;
57297;SDS011;43147;50.972;18.210;2022-09-21T17:19:37;16.10;;;8.40;;
57297;SDS011;43147;50.972;18.210;2022-09-21T17:22:07;15.30;;;9.80;;
57297;SDS011;43147;50.972;18.210;2022-09-21T17:24:34;17.50;;;10.30;;
57297;SDS011;43147;50.972;18.210;2022-09-21T17:27:01;16.80;;;9.20;;
57297;SDS011;43147;50.972;18.210;2022-09-21T17:29:26;18.10;;;9.70;;
57297;SDS011;43147;50.972;18.210;2022-09-21T17:31:57;15.60;;;7.80;;
57297;SDS011;43147;50.972;18.210;2022-09-21T17:34:26;13.60;;;7.30;;
57297;SDS011;43147;50.972;18.210;2022-09-21T17:36:53;8.60;;;7.00;;
57297;SDS011;43147;50.972;18.210;2022-09-21T17:39:21;11.60;;;7.50;;
57297;SDS011;43147;50.972;18.210;2022-09-21T17:41:49;7.60;;;5.50;;
57297;SDS011;43147;50.972;18.210;2022-09-21T17:47:16;6.90;;;4.80;;
57297;SDS011;43147;50.972;18.210;2022-09-21T17:49:54;7.70;;;4.60;;
57297;SDS011;43147;50.972;18.210;2022-09-21T17:52:29;6.40;;;4.10;;
57297;SDS011;43147;50.972;18.210;2022-09-21T17:55:14;6.30;;;3.70;;
57297;SDS011;43147;50.972;18.210;2022-09-21T17:57:58;5.20;;;4.30;;
57297;SDS011;43147;50.972;18.210;2022-09-21T18:03:23;7.90;;;4.90;;
57297;SDS011;43147;50.972;18.210;2022-09-21T18:05:51;7.90;;;5.30;;
57297;SDS011;43147;50.972;18.210;2022-09-21T18:08:24;8.20;;;4.90;;
57297;SDS011;43147;50.972;18.210;2022-09-21T18:11:01;9.40;;;5.60;;
57297;SDS011;43147;50.972;18.210;2022-09-21T18:13:57;8.00;;;6.80;;
57297;SDS011;43147;50.972;18.210;2022-09-21T18:21:44;10.80;;;6.70;;
57297;SDS011;43147;50.972;18.210;2022-09-21T18:24:23;8.50;;;7.50;;